This is the latest recevied weather packets stored in our database for station/object DD3FC-1. If no packets are shown the sender has not sent any weather packets the latest 10 day(s).
| Time | Temp. | Humidity | Pressure | Rain* | Wind** | Luminosity | Snow |
|---|---|---|---|---|---|---|---|
| 1777186868 | 12.78° C | 50% | 1025 hPa | 0 mm | - | - | - |
| 1777186268 | 11.67° C | 51% | 1024.9 hPa | 0 mm | - | - | - |
| 1777185668 | 11.11° C | 54% | 1024.8 hPa | 0 mm | - | - | - |
| 1777185068 | 10.56° C | 57% | 1025 hPa | 0 mm | - | - | - |
| 1777184469 | 9.44° C | 62% | 1024.7 hPa | 0 mm | - | - | - |
| 1777183869 | 8.89° C | 64% | 1024.6 hPa | 0 mm | - | - | - |
| 1777183269 | 8.33° C | 68% | 1024.6 hPa | 0 mm | - | - | - |
| 1777182669 | 7.78° C | 70% | 1024.6 hPa | 0 mm | - | - | - |
| 1777182069 | 7.22° C | 70% | 1024.5 hPa | 0 mm | - | - | - |
| 1777181469 | 7.22° C | 70% | 1024.5 hPa | 0 mm | - | - | - |
| 1777180869 | 6.67° C | 72% | 1024.3 hPa | 0 mm | - | - | - |
| 1777180269 | 6.11° C | 71% | 1024.2 hPa | 0 mm | - | - | - |
| 1777179669 | 6.11° C | 72% | 1024 hPa | 0 mm | - | - | - |
| 1777179069 | 6.11° C | 71% | 1023.9 hPa | 0 mm | - | - | - |
| 1777178469 | 6.11° C | 72% | 1023.9 hPa | 0 mm | - | - | - |
| 1777177869 | 6.11° C | 72% | 1023.8 hPa | 0 mm | - | - | - |
| 1777177269 | 6.11° C | 70% | 1023.6 hPa | 0 mm | - | - | - |
| 1777176669 | 6.11° C | 70% | 1023.7 hPa | 0 mm | - | - | - |
| 1777176069 | 6.67° C | 70% | 1023.6 hPa | 0 mm | - | - | - |
| 1777175469 | 6.67° C | 69% | 1023.3 hPa | 0 mm | - | - | - |
| 1777174869 | 6.67° C | 69% | 1023.2 hPa | 0 mm | - | - | - |
| 1777174269 | 6.67° C | 68% | 1023 hPa | 0 mm | - | - | - |
| 1777173669 | 6.67° C | 69% | 1023 hPa | 0 mm | - | - | - |
| 1777173069 | 6.67° C | 68% | 1022.8 hPa | 0 mm | - | - | - |
| 1777172469 | 7.22° C | 67% | 1022.8 hPa | 0 mm | - | - | - |
* Rain latest hour (hover to see other rain measurements)
** Current wind speed in m/s (hover to see current wind gust speed)